sensor_id;sensor_type;location;lat;lon;timestamp;pressure;altitude;pressure_sealevel;temperature;humidity
41688;BME280;27371;42.686;23.362;2024-03-22T00:01:41;163363.94;;;4.47;56.92
41688;BME280;27371;42.686;23.362;2024-03-22T00:04:06;163302.69;;;4.24;57.45
41688;BME280;27371;42.686;23.362;2024-03-22T00:06:32;163322.66;;;4.32;57.24
41688;BME280;27371;42.686;23.362;2024-03-22T00:08:57;163329.31;;;4.34;57.12
41688;BME280;27371;42.686;23.362;2024-03-22T00:11:23;163353.25;;;4.43;57.28
41688;BME280;27371;42.686;23.362;2024-03-22T00:13:48;163363.94;;;4.47;57.47
41688;BME280;27371;42.686;23.362;2024-03-22T00:16:14;163370.59;;;4.50;57.08
41688;BME280;27371;42.686;23.362;2024-03-22T00:18:39;163366.56;;;4.49;56.88
41688;BME280;27371;42.686;23.362;2024-03-22T00:21:05;163367.91;;;4.49;56.88
41688;BME280;27371;42.686;23.362;2024-03-22T00:23:31;163333.34;;;4.36;57.10
41688;BME280;27371;42.686;23.362;2024-03-22T00:25:59;163258.78;;;4.07;57.97
41688;BME280;27371;42.686;23.362;2024-03-22T00:28:24;163236.16;;;3.98;58.64
41688;BME280;27371;42.686;23.362;2024-03-22T00:30:50;163213.53;;;3.90;58.15
41688;BME280;27371;42.686;23.362;2024-03-22T00:33:15;163258.78;;;4.07;58.36
41688;BME280;27371;42.686;23.362;2024-03-22T00:35:41;163274.72;;;4.13;58.05
41688;BME280;27371;42.686;23.362;2024-03-22T00:38:06;163304.06;;;4.24;57.22
41688;BME280;27371;42.686;23.362;2024-03-22T00:40:33;163317.31;;;4.30;57.35
41688;BME280;27371;42.686;23.362;2024-03-22T00:42:58;163305.38;;;4.25;57.54
41688;BME280;27371;42.686;23.362;2024-03-22T00:45:24;163357.28;;;4.45;57.58
41688;BME280;27371;42.686;23.362;2024-03-22T00:47:49;163369.28;;;4.50;58.04
41688;BME280;27371;42.686;23.362;2024-03-22T00:50:18;163385.22;;;4.56;58.08
41688;BME280;27371;42.686;23.362;2024-03-22T00:52:44;163377.25;;;4.53;58.25
41688;BME280;27371;42.686;23.362;2024-03-22T00:55:09;163406.53;;;4.64;58.41
41688;BME280;27371;42.686;23.362;2024-03-22T00:57:35;163393.22;;;4.59;58.82
41688;BME280;27371;42.686;23.362;2024-03-22T01:00:00;163397.19;;;4.60;58.87
41688;BME280;27371;42.686;23.362;2024-03-22T01:02:26;163377.25;;;4.53;58.65
41688;BME280;27371;42.686;23.362;2024-03-22T01:04:51;163426.50;;;4.72;58.47
41688;BME280;27371;42.686;23.362;2024-03-22T01:07:17;163386.56;;;4.56;58.30
41688;BME280;27371;42.686;23.362;2024-03-22T01:09:42;163419.84;;;4.69;58.47
41688;BME280;27371;42.686;23.362;2024-03-22T01:12:10;163406.53;;;4.64;58.24
41688;BME280;27371;42.686;23.362;2024-03-22T01:14:35;163395.84;;;4.60;57.65
41688;BME280;27371;42.686;23.362;2024-03-22T01:17:01;163391.91;;;4.58;57.61
41688;BME280;27371;42.686;23.362;2024-03-22T01:19:27;163321.34;;;4.31;57.74
41688;BME280;27371;42.686;23.362;2024-03-22T01:21:52;163241.50;;;4.00;58.81
41688;BME280;27371;42.686;23.362;2024-03-22T01:24:18;163196.22;;;3.83;60.80
41688;BME280;27371;42.686;23.362;2024-03-22T01:26:43;163180.25;;;3.77;61.18
41688;BME280;27371;42.686;23.362;2024-03-22T01:29:09;163151.00;;;3.66;61.15
41688;BME280;27371;42.686;23.362;2024-03-22T01:31:34;163225.53;;;3.94;60.36
41688;BME280;27371;42.686;23.362;2024-03-22T01:34:00;163269.44;;;4.11;59.48
41688;BME280;27371;42.686;23.362;2024-03-22T01:36:25;163266.75;;;4.10;59.07
41688;BME280;27371;42.686;23.362;2024-03-22T01:38:51;163308.03;;;4.26;58.61
41688;BME280;27371;42.686;23.362;2024-03-22T01:41:17;163305.38;;;4.25;58.52
41688;BME280;27371;42.686;23.362;2024-03-22T01:43:43;163358.59;;;4.45;59.06
41688;BME280;27371;42.686;23.362;2024-03-22T01:46:08;163383.91;;;4.55;58.56
41688;BME280;27371;42.686;23.362;2024-03-22T01:48:34;163350.63;;;4.42;59.23
41688;BME280;27371;42.686;23.362;2024-03-22T01:51:01;163280.06;;;4.15;60.51
41688;BME280;27371;42.686;23.362;2024-03-22T01:53:27;163176.28;;;3.75;62.58
41688;BME280;27371;42.686;23.362;2024-03-22T01:55:53;163155.00;;;3.67;63.19
41688;BME280;27371;42.686;23.362;2024-03-22T01:58:19;163190.94;;;3.81;62.55
41688;BME280;27371;42.686;23.362;2024-03-22T02:00:44;163112.44;;;3.51;62.19
41688;BME280;27371;42.686;23.362;2024-03-22T02:03:11;163214.88;;;3.90;62.12
41688;BME280;27371;42.686;23.362;2024-03-22T02:05:36;163197.59;;;3.84;62.24
41688;BME280;27371;42.686;23.362;2024-03-22T02:08:02;163177.63;;;3.76;62.03
41688;BME280;27371;42.686;23.362;2024-03-22T02:10:28;163216.19;;;3.91;62.18
41688;BME280;27371;42.686;23.362;2024-03-22T02:12:53;163224.16;;;3.94;61.98
41688;BME280;27371;42.686;23.362;2024-03-22T02:15:19;163230.81;;;3.96;62.08
41688;BME280;27371;42.686;23.362;2024-03-22T02:17:44;163232.13;;;3.97;62.19
41688;BME280;27371;42.686;23.362;2024-03-22T02:20:10;163201.53;;;3.85;62.54
41688;BME280;27371;42.686;23.362;2024-03-22T02:22:38;163119.09;;;3.53;63.64
41688;BME280;27371;42.686;23.362;2024-03-22T02:25:04;163014.00;;;3.13;66.04
41688;BME280;27371;42.686;23.362;2024-03-22T02:27:29;162959.44;;;2.92;67.54
41688;BME280;27371;42.686;23.362;2024-03-22T02:29:55;162963.44;;;2.94;68.52
41688;BME280;27371;42.686;23.362;2024-03-22T02:32:20;162974.06;;;2.98;68.42
41688;BME280;27371;42.686;23.362;2024-03-22T02:34:46;163043.25;;;3.24;68.28
41688;BME280;27371;42.686;23.362;2024-03-22T02:37:11;163037.91;;;3.22;67.47
41688;BME280;27371;42.686;23.362;2024-03-22T02:39:37;163104.44;;;3.48;66.53
41688;BME280;27371;42.686;23.362;2024-03-22T02:42:03;163128.38;;;3.57;65.67
41688;BME280;27371;42.686;23.362;2024-03-22T02:44:28;163155.00;;;3.67;65.01
41688;BME280;27371;42.686;23.362;2024-03-22T02:46:54;163169.63;;;3.73;65.00
41688;BME280;27371;42.686;23.362;2024-03-22T02:49:19;163155.00;;;3.67;64.52
41688;BME280;27371;42.686;23.362;2024-03-22T02:51:45;163136.34;;;3.60;64.05
41688;BME280;27371;42.686;23.362;2024-03-22T02:54:11;163120.41;;;3.54;63.90
41688;BME280;27371;42.686;23.362;2024-03-22T02:56:36;163115.06;;;3.52;64.51
41688;BME280;27371;42.686;23.362;2024-03-22T02:59:02;163008.66;;;3.11;65.17
41688;BME280;27371;42.686;23.362;2024-03-22T03:01:27;162970.09;;;2.96;65.93
41688;BME280;27371;42.686;23.362;2024-03-22T03:03:53;162912.94;;;2.74;66.13
41688;BME280;27371;42.686;23.362;2024-03-22T03:06:19;162865.06;;;2.56;66.79
41688;BME280;27371;42.686;23.362;2024-03-22T03:08:45;162793.25;;;2.28;67.49
41688;BME280;27371;42.686;23.362;2024-03-22T03:11:11;162776.00;;;2.21;67.82
41688;BME280;27371;42.686;23.362;2024-03-22T03:13:36;162781.34;;;2.23;67.91
41688;BME280;27371;42.686;23.362;2024-03-22T03:16:02;162791.94;;;2.28;67.59
41688;BME280;27371;42.686;23.362;2024-03-22T03:18:28;162774.69;;;2.21;67.84
41688;BME280;27371;42.686;23.362;2024-03-22T03:20:53;162718.84;;;1.99;67.19
41688;BME280;27371;42.686;23.362;2024-03-22T03:23:19;162623.22;;;1.63;67.95
41688;BME280;27371;42.686;23.362;2024-03-22T03:25:45;162570.03;;;1.42;70.86
41688;BME280;27371;42.686;23.362;2024-03-22T03:28:11;162495.69;;;1.14;73.98
41688;BME280;27371;42.686;23.362;2024-03-22T03:30:38;162508.97;;;1.19;75.95
41688;BME280;27371;42.686;23.362;2024-03-22T03:33:04;162536.81;;;1.29;74.77
41688;BME280;27371;42.686;23.362;2024-03-22T03:35:29;162592.63;;;1.51;73.87
41688;BME280;27371;42.686;23.362;2024-03-22T03:37:55;162576.69;;;1.45;73.28
41688;BME280;27371;42.686;23.362;2024-03-22T03:40:21;162648.44;;;1.72;73.37
41688;BME280;27371;42.686;23.362;2024-03-22T03:42:52;162656.41;;;1.75;72.48
41688;BME280;27371;42.686;23.362;2024-03-22T03:45:18;162637.81;;;1.68;71.85
41688;BME280;27371;42.686;23.362;2024-03-22T03:47:43;162671.00;;;1.81;71.77
41688;BME280;27371;42.686;23.362;2024-03-22T03:50:09;162712.22;;;1.97;71.47
41688;BME280;27371;42.686;23.362;2024-03-22T03:52:35;162730.84;;;2.04;71.13
41688;BME280;27371;42.686;23.362;2024-03-22T03:55:00;162733.47;;;2.05;71.04
41688;BME280;27371;42.686;23.362;2024-03-22T03:57:26;162760.06;;;2.15;70.93
41688;BME280;27371;42.686;23.362;2024-03-22T03:59:52;162788.00;;;2.26;70.87
41688;BME280;27371;42.686;23.362;2024-03-22T04:02:17;162781.34;;;2.23;70.47
41688;BME280;27371;42.686;23.362;2024-03-22T04:04:43;162830.47;;;2.42;69.95
41688;BME280;27371;42.686;23.362;2024-03-22T04:07:09;162822.50;;;2.39;69.91
41688;BME280;27371;42.686;23.362;2024-03-22T04:09:34;162865.06;;;2.56;69.42
41688;BME280;27371;42.686;23.362;2024-03-22T04:12:00;162865.06;;;2.56;69.47
41688;BME280;27371;42.686;23.362;2024-03-22T04:14:26;162882.34;;;2.62;69.28
41688;BME280;27371;42.686;23.362;2024-03-22T04:16:52;162899.63;;;2.69;69.31
41688;BME280;27371;42.686;23.362;2024-03-22T04:19:20;162878.34;;;2.61;68.95
41688;BME280;27371;42.686;23.362;2024-03-22T04:21:46;162926.22;;;2.79;68.42
41688;BME280;27371;42.686;23.362;2024-03-22T04:24:11;162878.34;;;2.61;67.29
41688;BME280;27371;42.686;23.362;2024-03-22T04:26:37;162870.38;;;2.58;68.06
41688;BME280;27371;42.686;23.362;2024-03-22T04:29:02;162815.84;;;2.37;69.64
41688;BME280;27371;42.686;23.362;2024-03-22T04:31:28;162762.72;;;2.16;70.58
41688;BME280;27371;42.686;23.362;2024-03-22T04:33:53;162802.59;;;2.32;70.39
41688;BME280;27371;42.686;23.362;2024-03-22T04:36:19;162825.19;;;2.40;69.35
41688;BME280;27371;42.686;23.362;2024-03-22T04:38:44;162865.06;;;2.56;68.43
41688;BME280;27371;42.686;23.362;2024-03-22T04:41:10;162903.63;;;2.71;67.79
41688;BME280;27371;42.686;23.362;2024-03-22T04:43:35;162958.13;;;2.92;67.46
41688;BME280;27371;42.686;23.362;2024-03-22T04:46:01;162959.44;;;2.92;67.12
41688;BME280;27371;42.686;23.362;2024-03-22T04:48:27;163018.00;;;3.15;66.82
41688;BME280;27371;42.686;23.362;2024-03-22T04:50:53;163043.25;;;3.24;66.44
41688;BME280;27371;42.686;23.362;2024-03-22T04:53:21;163049.91;;;3.27;66.50
41688;BME280;27371;42.686;23.362;2024-03-22T04:55:47;163083.16;;;3.40;65.79
41688;BME280;27371;42.686;23.362;2024-03-22T04:58:18;163105.78;;;3.48;65.59
41688;BME280;27371;42.686;23.362;2024-03-22T05:00:44;163103.09;;;3.47;65.75
41688;BME280;27371;42.686;23.362;2024-03-22T05:03:10;163132.41;;;3.59;65.71
41688;BME280;27371;42.686;23.362;2024-03-22T05:05:36;163204.25;;;3.86;65.77
41688;BME280;27371;42.686;23.362;2024-03-22T05:08:02;163209.53;;;3.88;64.99
41688;BME280;27371;42.686;23.362;2024-03-22T05:10:28;163340.00;;;4.38;64.16
41688;BME280;27371;42.686;23.362;2024-03-22T05:12:55;163429.16;;;4.73;62.89
41688;BME280;27371;42.686;23.362;2024-03-22T05:15:21;163383.91;;;4.55;62.39
41688;BME280;27371;42.686;23.362;2024-03-22T05:17:46;163506.41;;;5.02;61.31
41688;BME280;27371;42.686;23.362;2024-03-22T05:20:12;163728.84;;;5.88;65.16
41688;BME280;27371;42.686;23.362;2024-03-22T05:22:39;163842.13;;;6.31;57.52
41688;BME280;27371;42.686;23.362;2024-03-22T05:25:05;163851.50;;;6.35;55.95
41688;BME280;27371;42.686;23.362;2024-03-22T05:27:31;163880.81;;;6.46;55.41
41688;BME280;27371;42.686;23.362;2024-03-22T05:29:58;163898.13;;;6.53;54.38
41688;BME280;27371;42.686;23.362;2024-03-22T05:32:24;163795.50;;;6.13;54.72
41688;BME280;27371;42.686;23.362;2024-03-22T05:34:50;163724.81;;;5.86;55.65
41688;BME280;27371;42.686;23.362;2024-03-22T05:37:16;163748.84;;;5.95;55.73
41688;BME280;27371;42.686;23.362;2024-03-22T05:39:42;163771.53;;;6.04;56.32
41688;BME280;27371;42.686;23.362;2024-03-22T05:42:08;163682.19;;;5.70;56.93
41688;BME280;27371;42.686;23.362;2024-03-22T05:44:33;163736.84;;;5.91;56.66
41688;BME280;27371;42.686;23.362;2024-03-22T05:46:59;163758.22;;;5.99;55.50
41688;BME280;27371;42.686;23.362;2024-03-22T05:49:24;163778.22;;;6.07;54.92
41688;BME280;27371;42.686;23.362;2024-03-22T05:51:50;163866.16;;;6.40;54.61
41688;BME280;27371;42.686;23.362;2024-03-22T05:54:16;163999.44;;;6.91;53.51
41688;BME280;27371;42.686;23.362;2024-03-22T05:56:41;164048.78;;;7.10;52.94
41688;BME280;27371;42.686;23.362;2024-03-22T05:59:07;164119.47;;;7.38;51.43
41688;BME280;27371;42.686;23.362;2024-03-22T06:01:32;164138.16;;;7.45;51.13
41688;BME280;27371;42.686;23.362;2024-03-22T06:03:58;164182.16;;;7.62;50.79
41688;BME280;27371;42.686;23.362;2024-03-22T06:06:24;164259.53;;;7.91;50.69
41688;BME280;27371;42.686;23.362;2024-03-22T06:08:54;164363.59;;;8.31;49.20
41688;BME280;27371;42.686;23.362;2024-03-22T06:11:22;164445.03;;;8.62;49.29
41688;BME280;27371;42.686;23.362;2024-03-22T06:13:48;164501.13;;;8.84;48.42
41688;BME280;27371;42.686;23.362;2024-03-22T06:16:13;164518.50;;;8.90;47.36
41688;BME280;27371;42.686;23.362;2024-03-22T06:18:39;164462.41;;;8.69;47.65
41688;BME280;27371;42.686;23.362;2024-03-22T06:21:05;164362.28;;;8.31;48.41
41688;BME280;27371;42.686;23.362;2024-03-22T06:23:31;164367.63;;;8.33;48.77
41688;BME280;27371;42.686;23.362;2024-03-22T06:25:57;164398.34;;;8.44;48.76
41688;BME280;27371;42.686;23.362;2024-03-22T06:28:23;164360.94;;;8.30;48.72
41688;BME280;27371;42.686;23.362;2024-03-22T06:30:49;164413.03;;;8.50;49.12
41688;BME280;27371;42.686;23.362;2024-03-22T06:33:15;164454.41;;;8.66;47.72
41688;BME280;27371;42.686;23.362;2024-03-22T06:35:43;164423.69;;;8.54;48.25
41688;BME280;27371;42.686;23.362;2024-03-22T06:38:09;164398.34;;;8.44;48.21
41688;BME280;27371;42.686;23.362;2024-03-22T06:40:35;164375.63;;;8.36;48.79
41688;BME280;27371;42.686;23.362;2024-03-22T06:43:01;164387.66;;;8.40;48.96
41688;BME280;27371;42.686;23.362;2024-03-22T06:45:26;164438.38;;;8.60;48.32
41688;BME280;27371;42.686;23.362;2024-03-22T06:47:52;164445.03;;;8.62;48.56
41688;BME280;27371;42.686;23.362;2024-03-22T06:50:17;164554.53;;;9.04;48.29
41688;BME280;27371;42.686;23.362;2024-03-22T06:52:44;164611.97;;;9.26;47.29
41688;BME280;27371;42.686;23.362;2024-03-22T06:55:10;164676.00;;;9.51;46.31
41688;BME280;27371;42.686;23.362;2024-03-22T06:57:37;164702.72;;;9.61;45.66
41688;BME280;27371;42.686;23.362;2024-03-22T07:00:03;164756.19;;;9.81;45.51
41688;BME280;27371;42.686;23.362;2024-03-22T07:02:29;164758.84;;;9.82;45.21
41688;BME280;27371;42.686;23.362;2024-03-22T07:04:54;164796.22;;;9.97;44.76
41688;BME280;27371;42.686;23.362;2024-03-22T07:07:20;164773.53;;;9.88;44.98
41688;BME280;27371;42.686;23.362;2024-03-22T07:09:46;164856.34;;;10.20;43.75
41688;BME280;27371;42.686;23.362;2024-03-22T07:12:13;164805.56;;;10.00;43.46
41688;BME280;27371;42.686;23.362;2024-03-22T07:14:38;164884.44;;;10.31;43.11
41688;BME280;27371;42.686;23.362;2024-03-22T07:17:04;164885.81;;;10.31;42.97
41688;BME280;27371;42.686;23.362;2024-03-22T07:19:30;164955.28;;;10.58;41.96
41688;BME280;27371;42.686;23.362;2024-03-22T07:21:56;164935.22;;;10.50;42.22
41688;BME280;27371;42.686;23.362;2024-03-22T07:24:23;164971.28;;;10.64;41.52
41688;BME280;27371;42.686;23.362;2024-03-22T07:26:49;164982.00;;;10.68;41.63
41688;BME280;27371;42.686;23.362;2024-03-22T07:29:15;165092.94;;;11.10;40.94
41688;BME280;27371;42.686;23.362;2024-03-22T07:31:41;165095.63;;;11.11;40.39
41688;BME280;27371;42.686;23.362;2024-03-22T07:34:06;165002.06;;;10.76;40.53
41688;BME280;27371;42.686;23.362;2024-03-22T07:36:32;164945.94;;;10.54;41.23
41688;BME280;27371;42.686;23.362;2024-03-22T07:39:02;164876.44;;;10.28;41.44
41688;BME280;27371;42.686;23.362;2024-03-22T07:41:28;164969.97;;;10.63;41.42
41688;BME280;27371;42.686;23.362;2024-03-22T07:43:54;165008.75;;;10.78;40.47
41688;BME280;27371;42.686;23.362;2024-03-22T07:46:20;165083.59;;;11.07;40.49
41688;BME280;27371;42.686;23.362;2024-03-22T07:48:46;165157.09;;;11.35;39.73
41688;BME280;27371;42.686;23.362;2024-03-22T07:51:12;165234.66;;;11.65;39.52
41688;BME280;27371;42.686;23.362;2024-03-22T07:53:37;165238.69;;;11.66;39.79
41688;BME280;27371;42.686;23.362;2024-03-22T07:56:03;165234.66;;;11.65;38.90
41688;BME280;27371;42.686;23.362;2024-03-22T07:58:28;165252.03;;;11.71;39.29
41688;BME280;27371;42.686;23.362;2024-03-22T08:00:54;165265.41;;;11.76;39.00
41688;BME280;27371;42.686;23.362;2024-03-22T08:03:19;165293.56;;;11.87;39.08
41688;BME280;27371;42.686;23.362;2024-03-22T08:05:45;165360.41;;;12.13;38.38
41688;BME280;27371;42.686;23.362;2024-03-22T08:08:11;165361.78;;;12.13;37.72
41688;BME280;27371;42.686;23.362;2024-03-22T08:10:36;165432.63;;;12.40;37.61
41688;BME280;27371;42.686;23.362;2024-03-22T08:13:03;165417.94;;;12.35;37.54
41688;BME280;27371;42.686;23.362;2024-03-22T08:15:29;165480.81;;;12.59;37.40
41688;BME280;27371;42.686;23.362;2024-03-22T08:17:55;165567.78;;;12.92;36.40
41688;BME280;27371;42.686;23.362;2024-03-22T08:20:23;165590.53;;;13.01;36.49
41688;BME280;27371;42.686;23.362;2024-03-22T08:22:48;165606.63;;;13.07;36.33
41688;BME280;27371;42.686;23.362;2024-03-22T08:25:14;165551.75;;;12.86;36.46
41688;BME280;27371;42.686;23.362;2024-03-22T08:27:43;165603.91;;;13.06;36.29
41688;BME280;27371;42.686;23.362;2024-03-22T08:30:10;165427.31;;;12.38;36.40
41688;BME280;27371;42.686;23.362;2024-03-22T08:32:36;165527.66;;;12.77;36.76
41688;BME280;27371;42.686;23.362;2024-03-22T08:35:02;165582.50;;;12.98;36.58
41688;BME280;27371;42.686;23.362;2024-03-22T08:37:30;165666.88;;;13.30;35.82
41688;BME280;27371;42.686;23.362;2024-03-22T08:39:55;165721.78;;;13.51;34.90
41688;BME280;27371;42.686;23.362;2024-03-22T08:42:21;165666.88;;;13.30;35.96
41688;BME280;27371;42.686;23.362;2024-03-22T08:44:46;165692.28;;;13.40;35.37
41688;BME280;27371;42.686;23.362;2024-03-22T08:47:12;165625.34;;;13.14;35.86
41688;BME280;27371;42.686;23.362;2024-03-22T08:49:38;165622.69;;;13.13;35.93
41688;BME280;27371;42.686;23.362;2024-03-22T08:52:04;165571.81;;;12.93;35.81
41688;BME280;27371;42.686;23.362;2024-03-22T08:54:30;165581.19;;;12.97;36.14
41688;BME280;27371;42.686;23.362;2024-03-22T08:56:55;165638.72;;;13.19;35.99
41688;BME280;27371;42.686;23.362;2024-03-22T08:59:21;165633.34;;;13.17;35.81
41688;BME280;27371;42.686;23.362;2024-03-22T09:01:48;165593.25;;;13.02;35.63
41688;BME280;27371;42.686;23.362;2024-03-22T09:04:14;165498.25;;;12.65;36.09
41688;BME280;27371;42.686;23.362;2024-03-22T09:06:40;165458.09;;;12.50;36.28
41688;BME280;27371;42.686;23.362;2024-03-22T09:09:06;165446.03;;;12.45;36.24
41688;BME280;27371;42.686;23.362;2024-03-22T09:11:33;165471.47;;;12.55;36.47
41688;BME280;27371;42.686;23.362;2024-03-22T09:13:59;165527.66;;;12.77;36.55
41688;BME280;27371;42.686;23.362;2024-03-22T09:16:24;165605.25;;;13.06;36.07
41688;BME280;27371;42.686;23.362;2024-03-22T09:18:50;165642.75;;;13.21;35.51
41688;BME280;27371;42.686;23.362;2024-03-22T09:21:16;165613.31;;;13.09;35.53
41688;BME280;27371;42.686;23.362;2024-03-22T09:23:41;165650.78;;;13.24;35.20
41688;BME280;27371;42.686;23.362;2024-03-22T09:26:07;165660.19;;;13.27;35.42
41688;BME280;27371;42.686;23.362;2024-03-22T09:28:32;165678.94;;;13.34;35.29
41688;BME280;27371;42.686;23.362;2024-03-22T09:31:03;165692.28;;;13.40;34.72
41688;BME280;27371;42.686;23.362;2024-03-22T09:33:34;165690.97;;;13.39;35.15
41688;BME280;27371;42.686;23.362;2024-03-22T09:36:00;165614.66;;;13.10;34.90
41688;BME280;27371;42.686;23.362;2024-03-22T09:38:25;165415.28;;;12.34;35.87
41688;BME280;27371;42.686;23.362;2024-03-22T09:40:51;165274.81;;;11.80;36.96
41688;BME280;27371;42.686;23.362;2024-03-22T09:43:22;165177.16;;;11.43;38.38
41688;BME280;27371;42.686;23.362;2024-03-22T09:45:51;165215.94;;;11.57;38.82
41688;BME280;27371;42.686;23.362;2024-03-22T09:48:18;165368.47;;;12.16;37.87
41688;BME280;27371;42.686;23.362;2024-03-22T09:50:46;165454.03;;;12.48;36.71
41688;BME280;27371;42.686;23.362;2024-03-22T09:53:13;165491.56;;;12.63;36.75
41688;BME280;27371;42.686;23.362;2024-03-22T09:55:39;165504.88;;;12.68;36.58
41688;BME280;27371;42.686;23.362;2024-03-22T09:58:09;165502.22;;;12.67;36.26
41688;BME280;27371;42.686;23.362;2024-03-22T10:00:34;165431.31;;;12.40;36.26
41688;BME280;27371;42.686;23.362;2024-03-22T10:03:00;165413.94;;;12.33;36.68
41688;BME280;27371;42.686;23.362;2024-03-22T10:05:26;165427.31;;;12.38;36.20
41688;BME280;27371;42.686;23.362;2024-03-22T10:07:52;165361.78;;;12.13;36.87
41688;BME280;27371;42.686;23.362;2024-03-22T10:10:19;165322.97;;;11.98;36.94
41688;BME280;27371;42.686;23.362;2024-03-22T10:12:44;165320.31;;;11.97;37.11
41688;BME280;27371;42.686;23.362;2024-03-22T10:15:10;165351.06;;;12.09;36.83
41688;BME280;27371;42.686;23.362;2024-03-22T10:17:37;165348.41;;;12.08;36.73
41688;BME280;27371;42.686;23.362;2024-03-22T10:20:03;165333.69;;;12.02;37.12
41688;BME280;27371;42.686;23.362;2024-03-22T10:22:29;165349.72;;;12.09;36.33
41688;BME280;27371;42.686;23.362;2024-03-22T10:24:55;165329.66;;;12.01;37.15
41688;BME280;27371;42.686;23.362;2024-03-22T10:27:27;165397.91;;;12.27;36.87
41688;BME280;27371;42.686;23.362;2024-03-22T10:29:52;165455.44;;;12.49;36.74
41688;BME280;27371;42.686;23.362;2024-03-22T10:32:18;165403.22;;;12.29;36.24
41688;BME280;27371;42.686;23.362;2024-03-22T10:34:45;165285.47;;;11.84;37.11
41688;BME280;27371;42.686;23.362;2024-03-22T10:37:14;165090.28;;;11.09;38.60
41688;BME280;27371;42.686;23.362;2024-03-22T10:39:42;165092.94;;;11.10;38.79
41688;BME280;27371;42.686;23.362;2024-03-22T10:42:08;165098.28;;;11.12;38.51
41688;BME280;27371;42.686;23.362;2024-03-22T10:44:34;165110.34;;;11.17;38.75
41688;BME280;27371;42.686;23.362;2024-03-22T10:47:01;165142.41;;;11.29;38.26
41688;BME280;27371;42.686;23.362;2024-03-22T10:49:30;165226.66;;;11.62;37.62
41688;BME280;27371;42.686;23.362;2024-03-22T10:52:02;165290.88;;;11.86;37.64
41688;BME280;27371;42.686;23.362;2024-03-22T10:54:39;165332.38;;;12.02;36.75
41688;BME280;27371;42.686;23.362;2024-03-22T10:57:07;165356.41;;;12.11;36.70
41688;BME280;27371;42.686;23.362;2024-03-22T10:59:36;165328.31;;;12.00;36.44
41688;BME280;27371;42.686;23.362;2024-03-22T11:02:05;165379.16;;;12.20;36.76
41688;BME280;27371;42.686;23.362;2024-03-22T11:04:32;165310.97;;;11.94;36.57
41688;BME280;27371;42.686;23.362;2024-03-22T11:06:58;165318.97;;;11.97;36.95
41688;BME280;27371;42.686;23.362;2024-03-22T11:09:25;165320.31;;;11.97;36.79
41688;BME280;27371;42.686;23.362;2024-03-22T11:11:51;165320.31;;;11.97;37.18
41688;BME280;27371;42.686;23.362;2024-03-22T11:14:17;165385.84;;;12.22;35.92
41688;BME280;27371;42.686;23.362;2024-03-22T11:16:44;165356.41;;;12.11;36.45
41688;BME280;27371;42.686;23.362;2024-03-22T11:19:10;165285.47;;;11.84;36.53
41688;BME280;27371;42.686;23.362;2024-03-22T11:21:36;165347.06;;;12.08;36.58
41688;BME280;27371;42.686;23.362;2024-03-22T11:24:01;165385.84;;;12.22;36.20
41688;BME280;27371;42.686;23.362;2024-03-22T11:26:28;165458.09;;;12.50;35.34
41688;BME280;27371;42.686;23.362;2024-03-22T11:28:54;165468.75;;;12.54;35.21
41688;BME280;27371;42.686;23.362;2024-03-22T11:31:19;165482.16;;;12.59;34.69
41688;BME280;27371;42.686;23.362;2024-03-22T11:33:51;165321.63;;;11.98;35.35
41688;BME280;27371;42.686;23.362;2024-03-22T11:36:18;165215.94;;;11.57;35.95
41688;BME280;27371;42.686;23.362;2024-03-22T11:38:43;165238.69;;;11.66;36.47
41688;BME280;27371;42.686;23.362;2024-03-22T11:41:09;165240.03;;;11.67;36.33
41688;BME280;27371;42.686;23.362;2024-03-22T11:43:35;165252.03;;;11.71;37.09
41688;BME280;27371;42.686;23.362;2024-03-22T11:46:01;165330.97;;;12.01;36.52
41688;BME280;27371;42.686;23.362;2024-03-22T11:48:27;165335.03;;;12.03;35.49
41688;BME280;27371;42.686;23.362;2024-03-22T11:50:53;165365.78;;;12.15;35.51
41688;BME280;27371;42.686;23.362;2024-03-22T11:53:18;165399.22;;;12.28;35.55
41688;BME280;27371;42.686;23.362;2024-03-22T11:55:44;165368.47;;;12.16;35.82
41688;BME280;27371;42.686;23.362;2024-03-22T11:58:10;165483.53;;;12.60;34.99
41688;BME280;27371;42.686;23.362;2024-03-22T12:00:36;165518.28;;;12.73;34.73
41688;BME280;27371;42.686;23.362;2024-03-22T12:03:04;165529.00;;;12.77;34.26
41688;BME280;27371;42.686;23.362;2024-03-22T12:05:31;165550.41;;;12.85;34.00
41688;BME280;27371;42.686;23.362;2024-03-22T12:07:57;165602.59;;;13.05;33.50
41688;BME280;27371;42.686;23.362;2024-03-22T12:10:22;165597.22;;;13.03;33.38
41688;BME280;27371;42.686;23.362;2024-03-22T12:12:48;165650.78;;;13.24;33.36
41688;BME280;27371;42.686;23.362;2024-03-22T12:15:13;165650.78;;;13.24;33.68
41688;BME280;27371;42.686;23.362;2024-03-22T12:17:39;165619.97;;;13.12;33.72
41688;BME280;27371;42.686;23.362;2024-03-22T12:20:06;165538.34;;;12.81;33.88
41688;BME280;27371;42.686;23.362;2024-03-22T12:22:34;165504.88;;;12.68;34.08
41688;BME280;27371;42.686;23.362;2024-03-22T12:24:59;165472.81;;;12.56;34.06
41688;BME280;27371;42.686;23.362;2024-03-22T12:27:25;165444.69;;;12.45;34.10
41688;BME280;27371;42.686;23.362;2024-03-22T12:29:51;165446.03;;;12.45;34.12
41688;BME280;27371;42.686;23.362;2024-03-22T12:32:16;165456.75;;;12.50;34.23
41688;BME280;27371;42.686;23.362;2024-03-22T12:34:42;165474.13;;;12.56;34.70
41688;BME280;27371;42.686;23.362;2024-03-22T12:37:08;165426.00;;;12.38;34.67
41688;BME280;27371;42.686;23.362;2024-03-22T12:39:34;165357.75;;;12.12;34.62